sensor_id;sensor_type;location;lat;lon;timestamp;pressure;altitude;pressure_sealevel;temperature;humidity
63731;BME280;49747;51.334;6.830;2022-11-11T00:00:44;102401.59;;;13.04;77.24
63731;BME280;49747;51.334;6.830;2022-11-11T00:03:30;102403.41;;;13.03;76.88
63731;BME280;49747;51.334;6.830;2022-11-11T00:06:16;102406.94;;;13.04;77.32
63731;BME280;49747;51.334;6.830;2022-11-11T00:09:01;102416.69;;;13.05;76.95
63731;BME280;49747;51.334;6.830;2022-11-11T00:11:47;102423.91;;;13.03;76.77
63731;BME280;49747;51.334;6.830;2022-11-11T00:14:32;102428.28;;;13.04;76.99
63731;BME280;49747;51.334;6.830;2022-11-11T00:17:17;102429.94;;;13.06;76.77
63731;BME280;49747;51.334;6.830;2022-11-11T00:20:20;102423.63;;;13.07;76.76
63731;BME280;49747;51.334;6.830;2022-11-11T00:23:29;102428.03;;;13.09;76.54
63731;BME280;49747;51.334;6.830;2022-11-11T00:26:32;102414.00;;;13.05;76.51
63731;BME280;49747;51.334;6.830;2022-11-11T00:29:24;102404.78;;;13.11;76.58
63731;BME280;49747;51.334;6.830;2022-11-11T00:32:09;102398.69;;;13.09;76.41
63731;BME280;49747;51.334;6.830;2022-11-11T00:35:07;102388.88;;;13.09;76.72
63731;BME280;49747;51.334;6.830;2022-11-11T00:38:12;102398.50;;;13.12;76.36
63731;BME280;49747;51.334;6.830;2022-11-11T00:41:19;102397.06;;;13.06;76.52
63731;BME280;49747;51.334;6.830;2022-11-11T00:44:04;102392.84;;;13.02;76.80
63731;BME280;49747;51.334;6.830;2022-11-11T00:46:49;102403.50;;;13.02;77.17
63731;BME280;49747;51.334;6.830;2022-11-11T00:49:53;102411.69;;;12.99;76.96
63731;BME280;49747;51.334;6.830;2022-11-11T00:52:57;102405.59;;;12.97;76.72
63731;BME280;49747;51.334;6.830;2022-11-11T00:55:42;102416.25;;;12.97;76.75
63731;BME280;49747;51.334;6.830;2022-11-11T00:58:27;102404.88;;;12.93;77.10
63731;BME280;49747;51.334;6.830;2022-11-11T01:01:13;102415.47;;;12.95;76.81
63731;BME280;49747;51.334;6.830;2022-11-11T01:03:59;102415.34;;;12.96;77.21
63731;BME280;49747;51.334;6.830;2022-11-11T01:06:45;102419.94;;;12.94;77.15
63731;BME280;49747;51.334;6.830;2022-11-11T01:09:31;102423.56;;;12.93;76.94
63731;BME280;49747;51.334;6.830;2022-11-11T01:12:16;102424.56;;;12.91;77.09
63731;BME280;49747;51.334;6.830;2022-11-11T01:15:01;102432.69;;;12.89;77.49
63731;BME280;49747;51.334;6.830;2022-11-11T01:17:46;102430.00;;;12.89;77.50
63731;BME280;49747;51.334;6.830;2022-11-11T01:20:32;102420.25;;;12.88;77.44
63731;BME280;49747;51.334;6.830;2022-11-11T01:23:17;102417.69;;;12.87;77.74
63731;BME280;49747;51.334;6.830;2022-11-11T01:26:23;102413.47;;;12.82;77.44
63731;BME280;49747;51.334;6.830;2022-11-11T01:29:15;102416.84;;;12.86;77.46
63731;BME280;49747;51.334;6.830;2022-11-11T01:32:00;102418.53;;;12.87;77.29
63731;BME280;49747;51.334;6.830;2022-11-11T01:34:46;102423.81;;;12.89;77.32
63731;BME280;49747;51.334;6.830;2022-11-11T01:37:32;102424.84;;;12.86;77.21
63731;BME280;49747;51.334;6.830;2022-11-11T01:40:18;102416.91;;;12.85;77.47
63731;BME280;49747;51.334;6.830;2022-11-11T01:45:50;102429.38;;;12.84;77.43
63731;BME280;49747;51.334;6.830;2022-11-11T01:48:40;102431.28;;;12.82;77.42
63731;BME280;49747;51.334;6.830;2022-11-11T01:51:57;102437.22;;;12.87;77.11
63731;BME280;49747;51.334;6.830;2022-11-11T01:54:54;102434.56;;;12.87;77.34
63731;BME280;49747;51.334;6.830;2022-11-11T01:57:49;102431.97;;;12.86;76.89
63731;BME280;49747;51.334;6.830;2022-11-11T02:00:36;102427.66;;;12.83;77.09
63731;BME280;49747;51.334;6.830;2022-11-11T02:03:22;102429.38;;;12.84;77.09
63731;BME280;49747;51.334;6.830;2022-11-11T02:06:09;102440.13;;;12.82;77.35
63731;BME280;49747;51.334;6.830;2022-11-11T02:08:55;102432.22;;;12.81;77.34
63731;BME280;49747;51.334;6.830;2022-11-11T02:11:41;102430.06;;;12.88;76.98
63731;BME280;49747;51.334;6.830;2022-11-11T02:14:48;102434.81;;;12.82;77.24
63731;BME280;49747;51.334;6.830;2022-11-11T02:17:35;102412.16;;;12.74;77.39
63731;BME280;49747;51.334;6.830;2022-11-11T02:20:25;102416.91;;;12.85;77.20
63731;BME280;49747;51.334;6.830;2022-11-11T02:23:20;102423.19;;;12.83;77.18
63731;BME280;49747;51.334;6.830;2022-11-11T02:26:09;102420.63;;;12.82;77.42
63731;BME280;49747;51.334;6.830;2022-11-11T02:28:55;102421.56;;;12.81;77.17
63731;BME280;49747;51.334;6.830;2022-11-11T02:31:41;102425.50;;;12.74;77.14
63731;BME280;49747;51.334;6.830;2022-11-11T02:34:31;102432.31;;;12.79;77.00
63731;BME280;49747;51.334;6.830;2022-11-11T02:37:21;102435.81;;;12.80;77.06
63731;BME280;49747;51.334;6.830;2022-11-11T02:40:06;102430.44;;;12.81;76.79
63731;BME280;49747;51.334;6.830;2022-11-11T02:42:53;102443.66;;;12.83;76.83
63731;BME280;49747;51.334;6.830;2022-11-11T02:45:39;102433.00;;;12.83;76.55
63731;BME280;49747;51.334;6.830;2022-11-11T02:48:25;102433.09;;;12.81;76.84
63731;BME280;49747;51.334;6.830;2022-11-11T02:51:11;102445.38;;;12.84;76.77
63731;BME280;49747;51.334;6.830;2022-11-11T02:53:56;102450.81;;;12.82;76.71
63731;BME280;49747;51.334;6.830;2022-11-11T02:56:47;102445.56;;;12.81;76.73
63731;BME280;49747;51.334;6.830;2022-11-11T02:59:51;102382.00;;;12.40;76.80
63731;BME280;49747;51.334;6.830;2022-11-11T03:02:37;102445.63;;;12.79;76.70
63731;BME280;49747;51.334;6.830;2022-11-11T03:05:23;102413.19;;;12.71;76.67
63731;BME280;49747;51.334;6.830;2022-11-11T03:08:09;102431.34;;;12.80;76.59
63731;BME280;49747;51.334;6.830;2022-11-11T03:10:57;102424.22;;;12.81;76.36
63731;BME280;49747;51.334;6.830;2022-11-11T03:13:42;102424.22;;;12.81;76.19
63731;BME280;49747;51.334;6.830;2022-11-11T03:16:31;102425.09;;;12.81;75.89
63731;BME280;49747;51.334;6.830;2022-11-11T03:19:35;102433.25;;;12.78;76.19
63731;BME280;49747;51.334;6.830;2022-11-11T03:22:21;102433.25;;;12.78;75.79
63731;BME280;49747;51.334;6.830;2022-11-11T03:25:26;102428.16;;;12.74;76.00
63731;BME280;49747;51.334;6.830;2022-11-11T03:28:24;102418.69;;;12.68;76.07
63731;BME280;49747;51.334;6.830;2022-11-11T03:31:11;102437.72;;;12.78;76.02
63731;BME280;49747;51.334;6.830;2022-11-11T03:33:56;102429.03;;;12.74;76.15
63731;BME280;49747;51.334;6.830;2022-11-11T03:37:06;102418.47;;;12.73;75.87
63731;BME280;49747;51.334;6.830;2022-11-11T03:40:11;102413.03;;;12.74;75.89
63731;BME280;49747;51.334;6.830;2022-11-11T03:42:57;102411.38;;;12.72;75.78
63731;BME280;49747;51.334;6.830;2022-11-11T03:45:49;102411.47;;;12.70;75.64
63731;BME280;49747;51.334;6.830;2022-11-11T03:48:34;102419.56;;;12.69;75.78
63731;BME280;49747;51.334;6.830;2022-11-11T03:51:20;102416.97;;;12.67;75.93
63731;BME280;49747;51.334;6.830;2022-11-11T03:54:05;102396.47;;;12.52;75.81
63731;BME280;49747;51.334;6.830;2022-11-11T03:56:51;102394.06;;;12.47;76.40
63731;BME280;49747;51.334;6.830;2022-11-11T03:59:37;102412.31;;;12.55;76.04
63731;BME280;49747;51.334;6.830;2022-11-11T04:02:22;102417.72;;;12.53;76.55
63731;BME280;49747;51.334;6.830;2022-11-11T04:05:26;102422.09;;;12.54;76.41
63731;BME280;49747;51.334;6.830;2022-11-11T04:08:30;102424.31;;;12.46;76.29
63731;BME280;49747;51.334;6.830;2022-11-11T04:11:39;102420.84;;;12.44;76.55
63731;BME280;49747;51.334;6.830;2022-11-11T04:14:25;102443.75;;;12.48;76.62
63731;BME280;49747;51.334;6.830;2022-11-11T04:17:29;102432.72;;;12.39;76.17
63731;BME280;49747;51.334;6.830;2022-11-11T04:20:14;102436.78;;;12.46;76.57
63731;BME280;49747;51.334;6.830;2022-11-11T04:23:19;102436.09;;;12.42;76.45
63731;BME280;49747;51.334;6.830;2022-11-11T04:26:04;102441.41;;;12.42;76.45
63731;BME280;49747;51.334;6.830;2022-11-11T04:28:51;102440.47;;;12.43;76.34
63731;BME280;49747;51.334;6.830;2022-11-11T04:32:07;102438.59;;;12.45;76.33
63731;BME280;49747;51.334;6.830;2022-11-11T04:35:12;102441.31;;;12.44;76.24
63731;BME280;49747;51.334;6.830;2022-11-11T04:37:58;102441.31;;;12.44;76.41
63731;BME280;49747;51.334;6.830;2022-11-11T04:41:04;102431.00;;;12.38;76.47
63731;BME280;49747;51.334;6.830;2022-11-11T04:43:49;102436.16;;;12.41;76.43
63731;BME280;49747;51.334;6.830;2022-11-11T04:47:13;102435.38;;;12.39;76.52
63731;BME280;49747;51.334;6.830;2022-11-11T04:49:58;102421.50;;;12.32;76.11
63731;BME280;49747;51.334;6.830;2022-11-11T04:52:51;102438.16;;;12.37;76.64
63731;BME280;49747;51.334;6.830;2022-11-11T04:55:37;102427.63;;;12.34;76.20
63731;BME280;49747;51.334;6.830;2022-11-11T04:58:40;102422.38;;;12.32;76.42
63731;BME280;49747;51.334;6.830;2022-11-11T05:01:26;102426.22;;;12.27;76.61
63731;BME280;49747;51.334;6.830;2022-11-11T05:04:30;102423.25;;;12.33;76.59
63731;BME280;49747;51.334;6.830;2022-11-11T05:07:15;102434.06;;;12.30;76.56
63731;BME280;49747;51.334;6.830;2022-11-11T05:10:19;102427.88;;;12.29;76.34
63731;BME280;49747;51.334;6.830;2022-11-11T05:13:05;102424.19;;;12.32;76.58
63731;BME280;49747;51.334;6.830;2022-11-11T05:16:16;102427.03;;;12.29;76.55
63731;BME280;49747;51.334;6.830;2022-11-11T05:19:25;102428.81;;;12.28;76.44
63731;BME280;49747;51.334;6.830;2022-11-11T05:22:32;102435.88;;;12.29;76.41
63731;BME280;49747;51.334;6.830;2022-11-11T05:25:18;102435.88;;;12.29;76.52
63731;BME280;49747;51.334;6.830;2022-11-11T05:28:09;102435.78;;;12.31;76.29
63731;BME280;49747;51.334;6.830;2022-11-11T05:30:54;102432.34;;;12.29;76.49
63731;BME280;49747;51.334;6.830;2022-11-11T05:33:39;102443.69;;;12.32;76.06
63731;BME280;49747;51.334;6.830;2022-11-11T05:36:24;102435.03;;;12.29;76.45
63731;BME280;49747;51.334;6.830;2022-11-11T05:39:10;102447.31;;;12.31;76.20
63731;BME280;49747;51.334;6.830;2022-11-11T05:41:55;102441.13;;;12.31;76.24
63731;BME280;49747;51.334;6.830;2022-11-11T05:44:41;102429.03;;;12.24;76.41
63731;BME280;49747;51.334;6.830;2022-11-11T05:47:27;102442.31;;;12.25;76.40
63731;BME280;49747;51.334;6.830;2022-11-11T05:50:12;102435.22;;;12.24;76.74
63731;BME280;49747;51.334;6.830;2022-11-11T05:52:57;102450.13;;;12.28;76.62
63731;BME280;49747;51.334;6.830;2022-11-11T05:55:42;102455.53;;;12.27;76.48
63731;BME280;49747;51.334;6.830;2022-11-11T05:58:27;102449.66;;;12.20;76.43
63731;BME280;49747;51.334;6.830;2022-11-11T06:01:12;102460.41;;;12.19;76.83
63731;BME280;49747;51.334;6.830;2022-11-11T06:03:59;102454.47;;;12.14;77.08
63731;BME280;49747;51.334;6.830;2022-11-11T06:06:44;102461.59;;;12.13;76.83
63731;BME280;49747;51.334;6.830;2022-11-11T06:09:29;102458.84;;;12.15;76.81
63731;BME280;49747;51.334;6.830;2022-11-11T06:12:15;102468.31;;;12.20;77.00
63731;BME280;49747;51.334;6.830;2022-11-11T06:15:00;102452.56;;;12.16;76.86
63731;BME280;49747;51.334;6.830;2022-11-11T06:17:45;102455.16;;;12.17;76.58
63731;BME280;49747;51.334;6.830;2022-11-11T06:20:31;102468.31;;;12.20;76.86
63731;BME280;49747;51.334;6.830;2022-11-11T06:23:19;102462.06;;;12.21;76.75
63731;BME280;49747;51.334;6.830;2022-11-11T06:26:05;102470.13;;;12.20;76.55
63731;BME280;49747;51.334;6.830;2022-11-11T06:29:00;102468.69;;;12.13;76.69
63731;BME280;49747;51.334;6.830;2022-11-11T06:31:45;102473.25;;;12.11;76.89
63731;BME280;49747;51.334;6.830;2022-11-11T06:34:30;102478.59;;;12.11;76.78
63731;BME280;49747;51.334;6.830;2022-11-11T06:37:15;102485.38;;;12.16;77.07
63731;BME280;49747;51.334;6.830;2022-11-11T06:40:01;102494.19;;;12.18;76.69
63731;BME280;49747;51.334;6.830;2022-11-11T06:42:46;102506.56;;;12.19;76.71
63731;BME280;49747;51.334;6.830;2022-11-11T06:45:32;102502.94;;;12.20;76.56
63731;BME280;49747;51.334;6.830;2022-11-11T06:48:20;102513.53;;;12.22;76.87
63731;BME280;49747;51.334;6.830;2022-11-11T06:51:06;102519.72;;;12.22;76.47
63731;BME280;49747;51.334;6.830;2022-11-11T06:53:55;102525.84;;;12.24;76.61
63731;BME280;49747;51.334;6.830;2022-11-11T06:56:40;102518.63;;;12.26;76.55
63731;BME280;49747;51.334;6.830;2022-11-11T06:59:25;102513.59;;;12.20;76.38
63731;BME280;49747;51.334;6.830;2022-11-11T07:02:12;102527.25;;;12.31;76.31
63731;BME280;49747;51.334;6.830;2022-11-11T07:04:58;102526.25;;;12.34;76.18
63731;BME280;49747;51.334;6.830;2022-11-11T07:07:44;102529.69;;;12.36;76.06
63731;BME280;49747;51.334;6.830;2022-11-11T07:10:30;102525.28;;;12.35;75.89
63731;BME280;49747;51.334;6.830;2022-11-11T07:13:16;102522.47;;;12.38;75.99
63731;BME280;49747;51.334;6.830;2022-11-11T07:16:01;102527.81;;;12.38;76.45
63731;BME280;49747;51.334;6.830;2022-11-11T07:18:47;102531.94;;;12.44;75.96
63731;BME280;49747;51.334;6.830;2022-11-11T07:21:32;102542.38;;;12.48;75.84
63731;BME280;49747;51.334;6.830;2022-11-11T07:24:17;102542.31;;;12.50;75.52
63731;BME280;49747;51.334;6.830;2022-11-11T07:27:02;102537.94;;;12.49;75.62
63731;BME280;49747;51.334;6.830;2022-11-11T07:29:47;102537.50;;;12.56;75.16
63731;BME280;49747;51.334;6.830;2022-11-11T07:32:33;102545.34;;;12.60;74.99
63731;BME280;49747;51.334;6.830;2022-11-11T07:35:20;102540.81;;;12.62;75.39
63731;BME280;49747;51.334;6.830;2022-11-11T07:38:05;102537.28;;;12.61;75.25
63731;BME280;49747;51.334;6.830;2022-11-11T07:40:50;102536.91;;;12.69;74.69
63731;BME280;49747;51.334;6.830;2022-11-11T07:43:36;102544.56;;;12.75;74.52
63731;BME280;49747;51.334;6.830;2022-11-11T07:46:22;102553.25;;;12.78;74.36
63731;BME280;49747;51.334;6.830;2022-11-11T07:49:07;102540.03;;;12.77;74.29
63731;BME280;49747;51.334;6.830;2022-11-11T07:51:52;102548.47;;;12.85;73.78
63731;BME280;49747;51.334;6.830;2022-11-11T07:54:38;102538.50;;;12.89;73.51
63731;BME280;49747;51.334;6.830;2022-11-11T07:57:24;102543.75;;;12.90;73.68
63731;BME280;49747;51.334;6.830;2022-11-11T08:00:10;102541.78;;;12.94;73.62
63731;BME280;49747;51.334;6.830;2022-11-11T08:02:56;102546.00;;;12.98;73.48
63731;BME280;49747;51.334;6.830;2022-11-11T08:05:44;102547.47;;;13.03;73.35
63731;BME280;49747;51.334;6.830;2022-11-11T08:08:29;102535.00;;;13.04;73.09
63731;BME280;49747;51.334;6.830;2022-11-11T08:11:16;102548.03;;;13.10;73.07
63731;BME280;49747;51.334;6.830;2022-11-11T08:14:02;102555.06;;;13.11;72.69
63731;BME280;49747;51.334;6.830;2022-11-11T08:16:55;102500.47;;;12.85;73.12
63731;BME280;49747;51.334;6.830;2022-11-11T08:19:49;102532.56;;;13.17;72.75
63731;BME280;49747;51.334;6.830;2022-11-11T08:22:39;102549.63;;;13.30;72.59
63731;BME280;49747;51.334;6.830;2022-11-11T08:25:46;102535.34;;;13.31;72.34
63731;BME280;49747;51.334;6.830;2022-11-11T08:28:33;102546.28;;;13.42;72.18
63731;BME280;49747;51.334;6.830;2022-11-11T08:31:23;102551.38;;;13.47;71.51
63731;BME280;49747;51.334;6.830;2022-11-11T08:34:19;102565.09;;;13.57;71.15
63731;BME280;49747;51.334;6.830;2022-11-11T08:37:07;102553.72;;;13.53;71.01
63731;BME280;49747;51.334;6.830;2022-11-11T08:39:56;102548.81;;;13.61;71.59
63731;BME280;49747;51.334;6.830;2022-11-11T08:42:41;102560.50;;;13.74;70.73
63731;BME280;49747;51.334;6.830;2022-11-11T08:45:30;102546.81;;;13.80;71.03
63731;BME280;49747;51.334;6.830;2022-11-11T08:48:16;102548.88;;;13.91;70.21
63731;BME280;49747;51.334;6.830;2022-11-11T08:51:02;102554.72;;;13.98;70.21
63731;BME280;49747;51.334;6.830;2022-11-11T08:53:49;102544.06;;;14.12;69.94
63731;BME280;49747;51.334;6.830;2022-11-11T08:56:34;102545.41;;;14.35;69.48
63731;BME280;49747;51.334;6.830;2022-11-11T08:59:19;102562.63;;;14.61;68.25
63731;BME280;49747;51.334;6.830;2022-11-11T09:02:05;102548.31;;;14.46;67.70
63731;BME280;49747;51.334;6.830;2022-11-11T09:04:51;102564.59;;;14.12;68.54
63731;BME280;49747;51.334;6.830;2022-11-11T09:07:39;102555.78;;;14.25;68.03
63731;BME280;49747;51.334;6.830;2022-11-11T09:10:27;102567.13;;;14.45;67.90
63731;BME280;49747;51.334;6.830;2022-11-11T09:13:19;102564.88;;;14.53;67.47
63731;BME280;49747;51.334;6.830;2022-11-11T09:16:20;102556.56;;;14.27;67.64
63731;BME280;49747;51.334;6.830;2022-11-11T09:19:15;102565.13;;;14.18;67.75
63731;BME280;49747;51.334;6.830;2022-11-11T09:22:00;102575.06;;;14.16;68.37
63731;BME280;49747;51.334;6.830;2022-11-11T09:24:45;102571.09;;;14.53;67.18
63731;BME280;49747;51.334;6.830;2022-11-11T09:27:31;102569.53;;;14.94;65.63
63731;BME280;49747;51.334;6.830;2022-11-11T09:30:17;102578.34;;;15.10;65.10
63731;BME280;49747;51.334;6.830;2022-11-11T09:36:30;102580.75;;;15.00;65.36
63731;BME280;49747;51.334;6.830;2022-11-11T09:39:16;102582.34;;;15.03;65.18
63731;BME280;49747;51.334;6.830;2022-11-11T09:56:11;102585.78;;;14.91;65.45
63731;BME280;49747;51.334;6.830;2022-11-11T09:59:55;102586.53;;;14.78;66.08
63731;BME280;49747;51.334;6.830;2022-11-11T10:02:52;102587.25;;;14.96;65.27
63731;BME280;49747;51.334;6.830;2022-11-11T10:05:48;102584.25;;;15.15;64.50
63731;BME280;49747;51.334;6.830;2022-11-11T10:08:47;102587.63;;;15.05;65.31
63731;BME280;49747;51.334;6.830;2022-11-11T10:14:23;102575.84;;;15.36;64.46
63731;BME280;49747;51.334;6.830;2022-11-11T10:17:31;102579.47;;;15.35;64.30
63731;BME280;49747;51.334;6.830;2022-11-11T10:20:28;102590.38;;;15.03;64.31
63731;BME280;49747;51.334;6.830;2022-11-11T10:23:20;102586.97;;;14.57;67.06
63731;BME280;49747;51.334;6.830;2022-11-11T10:26:45;102579.75;;;14.73;66.30
63731;BME280;49747;51.334;6.830;2022-11-11T10:29:39;102599.84;;;15.37;64.47
63731;BME280;49747;51.334;6.830;2022-11-11T10:32:32;102595.25;;;15.53;63.92
63731;BME280;49747;51.334;6.830;2022-11-11T10:35:21;102600.50;;;15.55;63.00
63731;BME280;49747;51.334;6.830;2022-11-11T10:38:30;102594.97;;;15.44;63.65
63731;BME280;49747;51.334;6.830;2022-11-11T10:41:38;102594.03;;;15.31;63.65
63731;BME280;49747;51.334;6.830;2022-11-11T10:44:27;102594.78;;;15.47;64.09
63731;BME280;49747;51.334;6.830;2022-11-11T10:47:33;102592.88;;;15.49;63.13
63731;BME280;49747;51.334;6.830;2022-11-11T10:50:37;102603.50;;;15.36;63.80
63731;BME280;49747;51.334;6.830;2022-11-11T10:54:06;102597.13;;;14.80;64.56
63731;BME280;49747;51.334;6.830;2022-11-11T10:56:58;102608.25;;;14.58;66.62
63731;BME280;49747;51.334;6.830;2022-11-11T10:59:53;102587.22;;;14.52;65.56
63731;BME280;49747;51.334;6.830;2022-11-11T11:06:05;102601.38;;;14.84;65.66
63731;BME280;49747;51.334;6.830;2022-11-11T11:09:00;102605.75;;;14.99;65.43
63731;BME280;49747;51.334;6.830;2022-11-11T11:11:51;102606.25;;;15.35;64.47
63731;BME280;49747;51.334;6.830;2022-11-11T11:14:42;102595.34;;;14.95;64.85
63731;BME280;49747;51.334;6.830;2022-11-11T11:17:39;102603.31;;;15.25;65.11
63731;BME280;49747;51.334;6.830;2022-11-11T11:20:26;102592.97;;;15.05;63.68
63731;BME280;49747;51.334;6.830;2022-11-11T11:23:11;102606.06;;;15.23;63.31
63731;BME280;49747;51.334;6.830;2022-11-11T11:25:57;102600.03;;;15.06;63.95
63731;BME280;49747;51.334;6.830;2022-11-11T11:28:57;102597.63;;;14.72;65.37
63731;BME280;49747;51.334;6.830;2022-11-11T11:31:43;102606.44;;;14.43;66.14
63731;BME280;49747;51.334;6.830;2022-11-11T11:34:53;102595.88;;;14.41;65.89
63731;BME280;49747;51.334;6.830;2022-11-11T11:37:49;102590.53;;;14.25;67.00
63731;BME280;49747;51.334;6.830;2022-11-11T11:40:54;102598.66;;;14.70;67.00
63731;BME280;49747;51.334;6.830;2022-11-11T11:43:41;102584.00;;;14.61;66.37
63731;BME280;49747;51.334;6.830;2022-11-11T11:46:38;102568.63;;;14.35;66.56
63731;BME280;49747;51.334;6.830;2022-11-11T11:52:46;102567.81;;;14.48;66.71
63731;BME280;49747;51.334;6.830;2022-11-11T11:55:41;102569.59;;;14.48;66.31
63731;BME280;49747;51.334;6.830;2022-11-11T12:05:07;102562.25;;;14.82;66.24
63731;BME280;49747;51.334;6.830;2022-11-11T12:11:08;102548.50;;;14.73;66.08
63731;BME280;49747;51.334;6.830;2022-11-11T12:20:24;102562.69;;;14.60;67.08
63731;BME280;49747;51.334;6.830;2022-11-11T12:23:27;102560.34;;;14.69;67.18
63731;BME280;49747;51.334;6.830;2022-11-11T12:26:48;102555.44;;;14.62;67.79
63731;BME280;49747;51.334;6.830;2022-11-11T12:32:51;102543.31;;;14.70;66.99
63731;BME280;49747;51.334;6.830;2022-11-11T12:41:44;102539.44;;;14.46;68.08
63731;BME280;49747;51.334;6.830;2022-11-11T12:44:54;102537.28;;;14.52;67.73
63731;BME280;49747;51.334;6.830;2022-11-11T12:54:18;102532.91;;;14.36;68.30
63731;BME280;49747;51.334;6.830;2022-11-11T13:00:09;102538.31;;;14.50;68.23
63731;BME280;49747;51.334;6.830;2022-11-11T13:06:42;102529.81;;;14.27;68.47
63731;BME280;49747;51.334;6.830;2022-11-11T13:15:32;102517.22;;;14.29;68.30
63731;BME280;49747;51.334;6.830;2022-11-11T13:24:30;102529.88;;;14.42;69.53
63731;BME280;49747;51.334;6.830;2022-11-11T13:27:47;102518.09;;;14.30;68.94
63731;BME280;49747;51.334;6.830;2022-11-11T13:30:38;102522.03;;;14.39;68.75
63731;BME280;49747;51.334;6.830;2022-11-11T13:33:38;102521.28;;;14.37;68.81
63731;BME280;49747;51.334;6.830;2022-11-11T13:36:27;102527.94;;;14.44;68.98
63731;BME280;49747;51.334;6.830;2022-11-11T13:39:29;102524.53;;;14.42;69.03
63731;BME280;49747;51.334;6.830;2022-11-11T13:42:24;102516.22;;;14.46;69.25
63731;BME280;49747;51.334;6.830;2022-11-11T13:45:35;102511.91;;;14.44;69.33
63731;BME280;49747;51.334;6.830;2022-11-11T13:48:25;102523.13;;;14.50;69.07
63731;BME280;49747;51.334;6.830;2022-11-11T13:54:06;102532.97;;;14.50;69.56
63731;BME280;49747;51.334;6.830;2022-11-11T14:00:04;102524.56;;;14.56;69.10
63731;BME280;49747;51.334;6.830;2022-11-11T14:08:58;102519.59;;;14.50;68.84
63731;BME280;49747;51.334;6.830;2022-11-11T14:11:43;102514.06;;;14.53;69.39
63731;BME280;49747;51.334;6.830;2022-11-11T14:17:17;102517.31;;;14.58;69.04
63731;BME280;49747;51.334;6.830;2022-11-11T14:23:25;102515.16;;;14.65;69.18
63731;BME280;49747;51.334;6.830;2022-11-11T14:26:21;102506.47;;;14.45;69.00
63731;BME280;49747;51.334;6.830;2022-11-11T14:29:15;102520.56;;;14.63;69.06
63731;BME280;49747;51.334;6.830;2022-11-11T14:35:12;102520.22;;;14.69;69.66
63731;BME280;49747;51.334;6.830;2022-11-11T14:50:00;102515.81;;;14.68;69.30
63731;BME280;49747;51.334;6.830;2022-11-11T14:52:46;102512.84;;;14.59;68.98
63731;BME280;49747;51.334;6.830;2022-11-11T14:55:34;102507.88;;;14.67;69.21
63731;BME280;49747;51.334;6.830;2022-11-11T14:58:21;102514.28;;;14.64;69.18
63731;BME280;49747;51.334;6.830;2022-11-11T15:01:13;102513.16;;;14.68;69.22
63731;BME280;49747;51.334;6.830;2022-11-11T15:04:02;102516.06;;;14.64;69.64
63731;BME280;49747;51.334;6.830;2022-11-11T15:06:55;102517.03;;;14.63;70.13
63731;BME280;49747;51.334;6.830;2022-11-11T15:10:02;102514.81;;;14.55;70.24
63731;BME280;49747;51.334;6.830;2022-11-11T15:15:55;102506.38;;;14.47;70.19
63731;BME280;49747;51.334;6.830;2022-11-11T15:22:06;102520.34;;;14.52;70.40
63731;BME280;49747;51.334;6.830;2022-11-11T15:25:05;102520.56;;;14.49;70.78
63731;BME280;49747;51.334;6.830;2022-11-11T15:36:57;102523.44;;;14.30;72.19
63731;BME280;49747;51.334;6.830;2022-11-11T15:39:49;102526.47;;;14.24;72.14
63731;BME280;49747;51.334;6.830;2022-11-11T15:42:39;102525.28;;;14.14;72.94
63731;BME280;49747;51.334;6.830;2022-11-11T15:45:31;102532.28;;;14.16;73.53
63731;BME280;49747;51.334;6.830;2022-11-11T15:48:21;102521.25;;;14.07;73.85
63731;BME280;49747;51.334;6.830;2022-11-11T15:54:32;102528.97;;;13.97;74.12
63731;BME280;49747;51.334;6.830;2022-11-11T16:03:19;102527.25;;;13.80;75.54
63731;BME280;49747;51.334;6.830;2022-11-11T16:06:15;102525.69;;;13.76;75.37
63731;BME280;49747;51.334;6.830;2022-11-11T16:09:01;102525.97;;;13.55;76.92
63731;BME280;49747;51.334;6.830;2022-11-11T16:11:47;102534.81;;;13.56;76.51
63731;BME280;49747;51.334;6.830;2022-11-11T16:14:39;102524.69;;;13.47;76.74
63731;BME280;49747;51.334;6.830;2022-11-11T16:17:33;102527.59;;;13.42;76.97
63731;BME280;49747;51.334;6.830;2022-11-11T16:20:27;102532.34;;;13.37;77.28
63731;BME280;49747;51.334;6.830;2022-11-11T16:23:18;102532.13;;;13.24;78.36
63731;BME280;49747;51.334;6.830;2022-11-11T16:26:06;102534.97;;;13.21;78.47
63731;BME280;49747;51.334;6.830;2022-11-11T16:28:53;102540.63;;;13.15;78.45
63731;BME280;49747;51.334;6.830;2022-11-11T16:31:41;102537.34;;;13.10;78.77
63731;BME280;49747;51.334;6.830;2022-11-11T16:37:16;102532.47;;;12.85;80.24
63731;BME280;49747;51.334;6.830;2022-11-11T16:40:27;102531.69;;;12.83;80.22
63731;BME280;49747;51.334;6.830;2022-11-11T16:43:19;102531.94;;;12.78;80.62
63731;BME280;49747;51.334;6.830;2022-11-11T16:46:53;102537.41;;;12.75;80.08
63731;BME280;49747;51.334;6.830;2022-11-11T16:49:14;102533.13;;;12.73;80.37
63731;BME280;49747;51.334;6.830;2022-11-11T16:52:06;102525.44;;;12.67;80.52
63731;BME280;49747;51.334;6.830;2022-11-11T16:54:58;102530.91;;;12.64;80.84
63731;BME280;49747;51.334;6.830;2022-11-11T16:57:44;102519.78;;;12.55;80.82
63731;BME280;49747;51.334;6.830;2022-11-11T17:00:30;102522.63;;;12.52;80.87
63731;BME280;49747;51.334;6.830;2022-11-11T17:03:23;102517.53;;;12.48;81.34
63731;BME280;49747;51.334;6.830;2022-11-11T17:06:11;102523.34;;;12.39;81.87
63731;BME280;49747;51.334;6.830;2022-11-11T17:08:56;102519.09;;;12.35;81.67
63731;BME280;49747;51.334;6.830;2022-11-11T17:11:43;102515.97;;;12.26;81.55
63731;BME280;49747;51.334;6.830;2022-11-11T17:14:34;102519.81;;;12.21;81.64
63731;BME280;49747;51.334;6.830;2022-11-11T17:17:20;102526.44;;;12.12;81.89